Time;durP1;ratioP1;P1;durP2;ratioP2;P2;SDS_P1;SDS_P2;PMS_P1;PMS_P2;Temp;Humidity;BMP_temperature;BMP_pressure;BME280_temperature;BME280_humidity;BME280_pressure;Samples;Min_cycle;Max_cycle;Signal;HPM_P1;HPM_P2
2022/11/08 00:03:33;;;;;;;18.15;3.60;;;12.10;99.90;;;;;;4985946;28;20061;-79
2022/11/08 00:14:11;;;;;;;19.38;3.58;;;12.30;99.90;;;;;;4986976;28;20048;-80
2022/11/08 00:16:37;;;;;;;16.42;3.17;;;12.00;99.90;;;;;;4990588;28;20046;-80
2022/11/08 00:19:02;;;;;;;14.80;3.05;;;12.30;99.90;;;;;;5010712;28;20056;-80
2022/11/08 00:21:28;;;;;;;16.33;3.08;;;12.10;99.90;;;;;;4985788;28;20053;-79
2022/11/08 00:23:54;;;;;;;25.33;3.60;;;12.30;99.90;;;;;;4980241;28;20050;-79
2022/11/08 00:26:19;;;;;;;19.40;3.50;;;12.00;99.90;;;;;;4971713;28;20046;-80
2022/11/08 00:28:45;;;;;;;16.08;3.35;;;12.30;99.90;;;;;;4991565;28;20103;-77
2022/11/08 00:31:11;;;;;;;17.13;3.55;;;12.30;99.90;;;;;;4987352;28;20089;-81
2022/11/08 00:33:36;;;;;;;17.15;3.60;;;12.00;99.90;;;;;;4989645;28;20040;-79
2022/11/08 00:36:03;;;;;;;20.15;4.07;;;12.00;99.90;;;;;;4987162;28;20465;-78
2022/11/08 00:38:28;;;;;;;22.08;3.58;;;12.30;99.90;;;;;;4972841;28;20050;-77
2022/11/08 00:40:54;;;;;;;15.73;3.45;;;12.30;99.90;;;;;;4990299;28;20077;-86
2022/11/08 00:43:20;;;;;;;25.92;3.72;;;12.20;99.90;;;;;;4991422;28;20385;-82
2022/11/08 00:45:45;;;;;;;20.60;3.97;;;12.00;99.90;;;;;;4991009;28;20058;-84
2022/11/08 00:48:11;;;;;;;17.63;3.67;;;12.00;99.90;;;;;;4992282;28;20042;-84
2022/11/08 00:50:37;;;;;;;20.45;3.92;;;12.20;99.90;;;;;;4981034;28;20034;-80
2022/11/08 00:53:03;;;;;;;20.52;3.70;;;12.30;99.90;;;;;;4988590;28;20069;-78
2022/11/08 00:55:29;;;;;;;13.50;3.15;;;12.00;99.90;;;;;;4973283;28;20084;-81
2022/11/08 00:57:54;;;;;;;19.55;3.90;;;12.20;99.90;;;;;;4986615;28;20070;-80
2022/11/08 01:00:20;;;;;;;20.02;3.47;;;12.20;99.90;;;;;;4975075;28;20096;-79
2022/11/08 01:02:46;;;;;;;18.50;3.90;;;12.30;99.90;;;;;;4988468;28;20041;-81
2022/11/08 01:05:11;;;;;;;23.40;4.20;;;12.30;99.90;;;;;;4986528;28;20038;-78
2022/11/08 01:07:37;;;;;;;25.52;3.92;;;12.00;99.90;;;;;;4985591;28;20046;-81
2022/11/08 01:10:04;;;;;;;15.38;3.38;;;12.20;99.90;;;;;;4984199;28;20041;-84
2022/11/08 01:15:56;;;;;;;16.88;3.17;;;12.00;99.90;;;;;;4981094;28;20090;-82
2022/11/08 01:18:22;;;;;;;20.13;3.42;;;12.30;99.90;;;;;;4987102;28;20599;-85
2022/11/08 01:20:49;;;;;;;17.85;3.03;;;12.00;99.90;;;;;;4971117;28;20125;-83
2022/11/08 01:23:16;;;;;;;21.08;3.67;;;12.00;99.90;;;;;;4960635;28;20117;-78
2022/11/08 01:25:45;;;;;;;20.23;3.58;;;12.30;99.90;;;;;;4980608;28;20101;-79
2022/11/08 01:28:11;;;;;;;15.20;3.13;;;12.10;99.90;;;;;;4987423;28;20068;-79
2022/11/08 01:30:38;;;;;;;15.05;3.22;;;12.30;99.90;;;;;;4976789;28;20038;-81
2022/11/08 01:33:05;;;;;;;16.45;3.30;;;12.00;99.90;;;;;;5002285;28;20425;-77
2022/11/08 01:35:32;;;;;;;19.48;3.40;;;12.20;99.90;;;;;;4970902;28;20496;-80
2022/11/08 01:37:58;;;;;;;19.35;3.17;;;12.10;99.90;;;;;;4987547;28;20045;-80
2022/11/08 01:40:25;;;;;;;14.05;3.03;;;12.10;99.90;;;;;;4985588;28;20049;-79
2022/11/08 01:42:52;;;;;;;20.02;3.35;;;12.00;99.90;;;;;;4990411;28;20052;-80
2022/11/08 01:45:55;;;;;;;16.02;3.08;;;11.80;99.90;;;;;;4988050;28;20366;-81
2022/11/08 01:48:22;;;;;;;19.08;3.15;;;12.00;99.90;;;;;;4996746;28;20036;-79
2022/11/08 01:50:49;;;;;;;20.45;3.00;;;11.90;99.90;;;;;;4987628;28;20124;-79
2022/11/08 01:53:15;;;;;;;17.52;3.30;;;12.00;99.90;;;;;;4964903;28;20034;-78
2022/11/08 01:55:41;;;;;;;18.48;3.08;;;11.70;99.90;;;;;;4977829;28;20065;-78
2022/11/08 01:58:12;;;;;;;20.08;3.53;;;11.90;99.90;;;;;;4983292;28;20393;-78
2022/11/08 02:00:38;;;;;;;22.00;3.50;;;12.00;99.90;;;;;;4977349;28;20046;-81
2022/11/08 02:03:08;;;;;;;16.50;3.20;;;11.80;99.90;;;;;;4980899;28;20034;-81
2022/11/08 02:05:34;;;;;;;17.05;3.20;;;12.00;99.90;;;;;;4964928;28;20142;-80
2022/11/08 02:08:19;;;;;;;11.27;2.50;;;11.70;99.90;;;;;;4967542;28;20111;-79
2022/11/08 02:10:49;;;;;;;16.70;3.15;;;12.00;99.90;;;;;;4986765;28;20112;-80
2022/11/08 02:13:18;;;;;;;15.80;2.90;;;11.90;99.90;;;;;;4982784;28;20119;-80
2022/11/08 02:15:44;;;;;;;22.10;2.95;;;11.60;99.90;;;;;;5001750;28;20044;-80
2022/11/08 02:18:11;;;;;;;15.30;3.25;;;11.70;99.90;;;;;;4985671;28;20085;-79
2022/11/08 02:20:38;;;;;;;17.45;2.70;;;11.90;99.90;;;;;;4987130;28;22042;-82
2022/11/08 02:23:20;;;;;;;16.88;3.15;;;11.90;99.90;;;;;;4985226;28;20448;-79
2022/11/08 02:25:46;;;;;;;18.88;3.17;;;11.80;99.90;;;;;;4992061;28;20057;-79
2022/11/08 02:28:12;;;;;;;19.30;3.95;;;11.70;99.90;;;;;;4966553;28;20050;-83
2022/11/08 02:30:38;;;;;;;11.90;2.75;;;11.70;99.90;;;;;;4960296;28;20114;-87
2022/11/08 02:33:21;;;;;;;18.50;3.47;;;11.70;99.90;;;;;;4976454;28;20046;-80
2022/11/08 02:35:53;;;;;;;21.08;2.88;;;11.70;99.90;;;;;;4959653;28;20042;-78
2022/11/08 02:38:19;;;;;;;14.23;2.67;;;11.70;99.90;;;;;;4931609;28;20030;-84
2022/11/08 02:40:45;;;;;;;8.43;2.40;;;11.60;99.90;;;;;;4958398;28;20047;-79
2022/11/08 02:43:11;;;;;;;11.57;2.95;;;11.70;99.90;;;;;;4956730;28;20079;-83
2022/11/08 02:45:36;;;;;;;19.73;2.97;;;11.60;99.90;;;;;;4944642;28;20038;-78
2022/11/08 02:48:02;;;;;;;16.40;2.88;;;11.50;99.90;;;;;;4977387;28;20031;-82
2022/11/08 02:50:28;;;;;;;20.27;3.55;;;11.20;99.90;;;;;;4983884;28;20113;-81
2022/11/08 02:52:53;;;;;;;15.98;3.22;;;11.50;99.90;;;;;;4961505;28;20057;-82
2022/11/08 02:55:19;;;;;;;20.42;3.10;;;11.50;99.90;;;;;;4960042;28;20081;-84
2022/11/08 02:57:44;;;;;;;13.75;3.20;;;11.40;99.90;;;;;;4961815;28;20078;-82
2022/11/08 03:00:11;;;;;;;15.68;2.97;;;11.40;99.90;;;;;;4931167;28;20054;-79
2022/11/08 03:02:36;;;;;;;15.80;2.92;;;11.20;99.90;;;;;;4975211;28;20049;-79
2022/11/08 03:05:02;;;;;;;18.58;2.78;;;11.50;99.90;;;;;;4952240;28;20047;-79
2022/11/08 03:07:28;;;;;;;14.30;2.85;;;11.10;99.90;;;;;;4958758;28;20047;-83
2022/11/08 03:09:53;;;;;;;13.13;3.20;;;11.10;99.90;;;;;;4977688;28;20130;-81
2022/11/08 03:12:19;;;;;;;17.35;3.70;;;11.30;99.90;;;;;;4959588;28;20050;-78
2022/11/08 03:14:45;;;;;;;8.93;2.90;;;11.10;99.90;;;;;;4978367;28;20035;-83
2022/11/08 03:17:10;;;;;;;13.07;3.20;;;11.30;99.90;;;;;;4960379;28;20501;-81
2022/11/08 03:19:36;;;;;;;17.92;2.85;;;11.10;99.90;;;;;;4966144;28;20097;-78
2022/11/08 03:22:02;;;;;;;20.05;3.08;;;11.00;99.90;;;;;;4943173;28;20039;-84
2022/11/08 03:24:27;;;;;;;13.75;2.72;;;11.30;99.90;;;;;;4968781;28;20065;-81
2022/11/08 03:26:53;;;;;;;14.65;3.17;;;11.10;99.90;;;;;;4970641;28;20050;-80
2022/11/08 03:29:19;;;;;;;14.38;2.80;;;10.90;99.90;;;;;;4968172;28;20154;-78
2022/11/08 03:31:44;;;;;;;14.27;3.30;;;11.10;99.90;;;;;;4964471;28;20038;-79
2022/11/08 03:34:11;;;;;;;13.73;3.45;;;10.90;99.90;;;;;;4954100;28;20041;-81
2022/11/08 03:36:37;;;;;;;16.20;3.67;;;11.10;99.90;;;;;;4965180;28;20042;-80
2022/11/08 03:39:03;;;;;;;22.23;3.90;;;11.00;99.90;;;;;;4949139;28;21626;-80
2022/11/08 03:41:28;;;;;;;17.75;3.00;;;11.00;99.90;;;;;;4963762;28;20057;-82
2022/11/08 03:43:54;;;;;;;18.23;3.55;;;11.10;99.90;;;;;;4973650;28;20041;-82
2022/11/08 03:46:19;;;;;;;18.08;3.17;;;10.80;99.90;;;;;;4969594;28;20481;-84
2022/11/08 03:48:45;;;;;;;17.05;3.20;;;10.70;99.90;;;;;;4956722;28;20100;-83
2022/11/08 03:51:11;;;;;;;12.93;3.33;;;10.70;99.90;;;;;;4974808;28;20043;-82
2022/11/08 03:53:36;;;;;;;14.50;2.97;;;11.10;99.90;;;;;;4963351;28;20078;-79
2022/11/08 03:56:02;;;;;;;17.67;3.38;;;10.90;99.90;;;;;;4952463;28;20193;-83
2022/11/08 03:58:28;;;;;;;16.17;3.60;;;10.70;99.90;;;;;;4948427;28;20492;-77
2022/11/08 04:00:53;;;;;;;17.50;3.72;;;10.90;99.90;;;;;;4968973;28;20042;-81
2022/11/08 04:03:19;;;;;;;19.88;3.28;;;10.90;99.90;;;;;;4965343;28;20050;-79
2022/11/08 04:05:45;;;;;;;9.90;3.08;;;10.90;99.90;;;;;;4968724;28;20065;-82
2022/11/08 04:08:11;;;;;;;12.95;3.08;;;10.70;99.90;;;;;;4964197;28;20066;-85
2022/11/08 04:10:36;;;;;;;15.10;2.90;;;10.80;99.90;;;;;;4965283;28;20121;-85
2022/11/08 04:15:52;;;;;;;18.27;3.38;;;10.50;99.90;;;;;;4958440;28;20482;-82
2022/11/08 04:21:17;;;;;;;17.85;3.50;;;10.80;99.90;;;;;;4983127;28;20058;-77
2022/11/08 04:23:43;;;;;;;13.05;2.67;;;10.40;99.90;;;;;;4977639;28;21223;-82
2022/11/08 04:26:10;;;;;;;18.05;3.35;;;10.40;99.90;;;;;;4957721;28;20374;-83
2022/11/08 04:28:38;;;;;;;12.35;2.92;;;10.50;99.90;;;;;;5004664;28;20451;-80
2022/11/08 04:31:12;;;;;;;16.92;3.45;;;10.40;99.90;;;;;;5003120;28;20049;-82
2022/11/08 04:33:38;;;;;;;16.88;3.30;;;10.50;99.90;;;;;;4980438;28;20045;-80
2022/11/08 04:36:07;;;;;;;18.77;3.70;;;10.30;99.90;;;;;;4977869;28;20058;-82
2022/11/08 04:38:33;;;;;;;21.23;3.60;;;10.40;99.90;;;;;;4961209;28;20046;-79
2022/11/08 04:41:13;;;;;;;15.18;3.08;;;10.30;99.90;;;;;;4979618;28;20050;-84
2022/11/08 04:43:39;;;;;;;16.65;3.95;;;10.60;99.90;;;;;;4992438;28;20128;-79
2022/11/08 04:46:10;;;;;;;13.98;3.60;;;10.40;99.90;;;;;;4992323;28;20120;-78
2022/11/08 04:48:36;;;;;;;14.88;3.40;;;10.30;99.90;;;;;;4978640;28;20034;-82
2022/11/08 04:51:14;;;;;;;15.63;3.38;;;10.40;99.90;;;;;;5003038;28;20353;-80
2022/11/08 04:53:40;;;;;;;14.23;3.10;;;10.50;99.90;;;;;;4970140;28;20038;-80
2022/11/08 04:56:08;;;;;;;13.80;3.45;;;10.70;99.90;;;;;;4982749;28;20052;-80
2022/11/08 04:58:37;;;;;;;16.38;3.30;;;10.40;99.90;;;;;;5005537;28;20129;-81
2022/11/08 05:01:05;;;;;;;16.92;3.65;;;10.60;99.90;;;;;;4988604;28;20030;-83
2022/11/08 05:03:31;;;;;;;10.90;2.88;;;10.40;99.90;;;;;;4983104;28;20057;-83
2022/11/08 05:06:12;;;;;;;17.33;3.20;;;10.60;99.90;;;;;;4989539;28;20049;-81
2022/11/08 05:08:38;;;;;;;8.50;2.78;;;10.50;99.90;;;;;;4965968;28;20037;-80
2022/11/08 05:11:09;;;;;;;12.35;2.83;;;10.40;99.90;;;;;;4985835;28;20124;-81
2022/11/08 05:13:35;;;;;;;11.15;2.88;;;10.60;99.90;;;;;;4983169;28;20042;-81
2022/11/08 05:16:04;;;;;;;17.23;3.13;;;10.60;99.90;;;;;;5001238;28;20101;-81
2022/11/08 05:18:31;;;;;;;12.80;3.05;;;10.50;99.90;;;;;;4977488;28;20899;-79
2022/11/08 05:23:43;;;;;;;13.75;3.00;;;10.60;99.90;;;;;;4970771;28;20052;-81
2022/11/08 05:26:09;;;;;;;11.52;2.95;;;10.50;99.90;;;;;;4962332;28;20156;-83
2022/11/08 05:28:34;;;;;;;17.60;3.20;;;10.60;99.90;;;;;;4965137;28;20454;-78
2022/11/08 05:31:00;;;;;;;10.38;2.70;;;10.60;99.90;;;;;;4979193;28;20128;-78
2022/11/08 05:33:26;;;;;;;17.70;3.45;;;10.40;99.90;;;;;;5000220;28;20037;-80
2022/11/08 05:35:52;;;;;;;15.82;3.38;;;10.60;99.90;;;;;;4979318;28;20037;-79
2022/11/08 05:38:19;;;;;;;7.60;2.67;;;10.40;99.90;;;;;;4977160;28;20520;-82
2022/11/08 05:40:44;;;;;;;12.68;2.88;;;10.60;99.90;;;;;;4995576;28;20038;-80
2022/11/08 05:43:10;;;;;;;15.80;2.92;;;10.50;99.90;;;;;;4968649;28;20041;-77
2022/11/08 05:45:36;;;;;;;14.73;2.97;;;10.50;99.90;;;;;;4982411;28;20396;-78
2022/11/08 05:48:02;;;;;;;13.20;2.67;;;10.20;99.90;;;;;;4953196;28;20035;-80
2022/11/08 05:50:32;;;;;;;9.50;2.58;;;10.30;99.90;;;;;;4969430;28;20041;-79
2022/11/08 05:52:58;;;;;;;10.57;2.33;;;10.50;99.90;;;;;;4995701;28;20041;-80
2022/11/08 05:55:24;;;;;;;10.00;2.50;;;10.20;99.90;;;;;;4981786;28;20080;-78
2022/11/08 05:57:50;;;;;;;13.13;2.45;;;10.20;99.90;;;;;;4960486;28;20042;-82
2022/11/08 06:00:16;;;;;;;13.88;2.72;;;10.10;99.90;;;;;;5001198;28;20050;-76
2022/11/08 06:02:41;;;;;;;8.25;2.53;;;10.30;99.90;;;;;;4980956;28;20042;-80
2022/11/08 06:05:08;;;;;;;12.75;2.35;;;10.30;99.90;;;;;;4978938;28;20064;-84
2022/11/08 06:07:34;;;;;;;10.15;2.53;;;10.10;99.90;;;;;;4982200;28;20041;-81
2022/11/08 06:10:00;;;;;;;11.18;2.92;;;10.10;99.90;;;;;;4978584;28;20085;-80
2022/11/08 06:12:26;;;;;;;11.82;3.30;;;10.00;99.90;;;;;;4969017;28;20041;-80
2022/11/08 06:14:51;;;;;;;11.50;2.90;;;10.10;99.90;;;;;;4974126;28;20129;-78
2022/11/08 06:17:17;;;;;;;12.38;2.65;;;10.30;99.90;;;;;;4967328;28;20117;-83
2022/11/08 06:19:43;;;;;;;12.38;2.75;;;10.10;99.90;;;;;;4979537;28;20093;-81
2022/11/08 06:22:09;;;;;;;15.45;2.72;;;10.00;99.90;;;;;;4977225;28;20042;-77
2022/11/08 06:24:35;;;;;;;10.93;2.50;;;10.30;99.90;;;;;;4965087;28;20041;-80
2022/11/08 06:27:00;;;;;;;12.98;2.67;;;10.30;99.90;;;;;;4979900;28;20126;-79
2022/11/08 06:29:26;;;;;;;7.90;2.30;;;10.20;99.90;;;;;;4978206;28;20536;-77
2022/11/08 06:31:52;;;;;;;10.55;2.80;;;10.20;99.90;;;;;;4984582;28;20053;-80
2022/11/08 06:34:18;;;;;;;10.23;3.03;;;10.30;99.90;;;;;;4978722;28;20137;-79
2022/11/08 06:36:43;;;;;;;9.65;2.90;;;10.10;99.90;;;;;;4984686;28;20050;-80
2022/11/08 06:39:09;;;;;;;10.88;2.38;;;10.10;99.90;;;;;;4969521;28;20370;-80
2022/11/08 06:41:36;;;;;;;14.75;2.70;;;10.30;99.90;;;;;;4969387;28;20061;-82
2022/11/08 06:44:01;;;;;;;9.73;2.60;;;10.30;99.90;;;;;;4984620;28;20050;-79
2022/11/08 06:46:27;;;;;;;11.63;2.33;;;10.30;99.90;;;;;;4986269;28;20030;-78
2022/11/08 06:48:53;;;;;;;11.40;2.70;;;10.10;99.90;;;;;;4991156;28;20518;-81
2022/11/08 06:51:18;;;;;;;9.05;2.70;;;10.20;99.90;;;;;;4995997;28;20041;-79
2022/11/08 06:53:44;;;;;;;21.60;2.83;;;10.20;99.90;;;;;;4977384;28;20069;-79
2022/11/08 06:56:29;;;;;;;14.98;2.47;;;10.30;99.90;;;;;;4986157;28;20069;-79
2022/11/08 06:58:54;;;;;;;8.85;2.28;;;10.50;99.90;;;;;;4968684;28;20054;-81
2022/11/08 07:01:20;;;;;;;9.25;2.30;;;10.30;99.90;;;;;;4983024;28;20045;-82
2022/11/08 07:03:45;;;;;;;7.30;2.05;;;10.30;99.90;;;;;;4983814;28;20042;-82
2022/11/08 07:06:11;;;;;;;7.45;2.53;;;10.40;99.90;;;;;;5003562;28;20060;-81
2022/11/08 07:08:37;;;;;;;13.85;2.70;;;10.60;99.90;;;;;;4983756;28;20040;-79
2022/11/08 07:11:03;;;;;;;9.93;2.50;;;10.70;99.90;;;;;;4987989;28;20038;-80
2022/11/08 07:13:29;;;;;;;9.93;2.47;;;10.50;99.90;;;;;;4974418;28;20041;-80
2022/11/08 07:16:01;;;;;;;9.13;2.70;;;10.50;99.90;;;;;;4974220;28;20445;-79
2022/11/08 07:18:27;;;;;;;11.50;2.72;;;10.70;99.90;;;;;;4985118;28;20057;-82
2022/11/08 07:20:57;;;;;;;11.65;2.88;;;10.70;99.90;;;;;;5006686;28;20184;-83
2022/11/08 07:23:23;;;;;;;11.45;2.75;;;10.50;99.90;;;;;;4976487;28;20057;-84
2022/11/08 07:25:49;;;;;;;13.93;2.65;;;10.50;99.90;;;;;;4981606;28;20069;-80
2022/11/08 07:28:16;;;;;;;8.95;2.75;;;10.80;99.90;;;;;;4975741;28;20072;-79
2022/11/08 07:30:43;;;;;;;15.93;2.78;;;10.80;99.90;;;;;;4952114;28;20038;-80
2022/11/08 07:33:08;;;;;;;7.00;2.45;;;10.90;99.90;;;;;;4972154;28;20046;-78
2022/11/08 07:35:36;;;;;;;10.88;2.45;;;11.00;99.90;;;;;;4989113;28;20108;-77
2022/11/08 07:38:02;;;;;;;8.57;2.22;;;10.80;99.90;;;;;;4984623;28;20477;-77
2022/11/08 07:40:27;;;;;;;7.55;2.13;;;10.90;99.90;;;;;;4961561;28;20054;-78
2022/11/08 07:42:57;;;;;;;8.18;2.25;;;10.90;99.90;;;;;;4954856;28;20104;-83
2022/11/08 07:45:23;;;;;;;10.63;2.63;;;11.00;99.90;;;;;;4988334;28;20392;-81
2022/11/08 07:47:59;;;;;;;9.32;2.17;;;10.90;99.90;;;;;;4985581;28;20056;-80
2022/11/08 07:50:25;;;;;;;10.55;2.45;;;11.00;99.90;;;;;;4983459;28;20042;-79
2022/11/08 07:52:51;;;;;;;10.60;2.58;;;11.20;99.90;;;;;;4983640;28;20774;-79
2022/11/08 07:55:17;;;;;;;9.50;2.17;;;11.10;99.90;;;;;;4991181;28;20061;-80
2022/11/08 07:57:42;;;;;;;6.05;1.92;;;11.20;99.90;;;;;;4972423;28;20060;-80
2022/11/08 08:00:09;;;;;;;9.65;2.33;;;11.10;99.90;;;;;;4988480;28;20748;-80
2022/11/08 08:02:34;;;;;;;6.15;2.10;;;11.40;99.90;;;;;;4984493;28;20068;-80
2022/11/08 08:05:02;;;;;;;8.15;2.40;;;11.40;99.90;;;;;;4967556;28;20133;-80
2022/11/08 08:07:28;;;;;;;5.93;1.80;;;11.40;99.90;;;;;;5001248;28;20096;-78
2022/11/08 08:09:53;;;;;;;5.25;1.90;;;11.50;99.90;;;;;;5005761;28;20037;-79
2022/11/08 08:12:19;;;;;;;8.20;1.92;;;11.50;99.90;;;;;;4979579;28;20057;-80
2022/11/08 08:14:45;;;;;;;8.25;1.90;;;11.60;99.90;;;;;;4975481;28;20069;-79
2022/11/08 08:17:10;;;;;;;6.45;1.90;;;11.60;99.90;;;;;;4972029;28;20034;-82
2022/11/08 08:19:36;;;;;;;4.72;1.88;;;11.80;99.90;;;;;;5002434;28;20143;-79
2022/11/08 08:22:02;;;;;;;7.15;2.35;;;11.70;99.90;;;;;;4970632;28;20049;-81
2022/11/08 08:24:27;;;;;;;8.38;2.20;;;11.80;99.90;;;;;;4978522;28;20058;-80
2022/11/08 08:26:54;;;;;;;6.18;2.10;;;11.80;99.90;;;;;;4975991;28;20047;-80
2022/11/08 08:29:19;;;;;;;10.55;2.33;;;11.80;99.90;;;;;;4990216;28;20038;-81
2022/11/08 08:31:45;;;;;;;9.07;2.08;;;11.90;99.90;;;;;;4989033;28;20049;-82
2022/11/08 08:34:11;;;;;;;5.20;1.70;;;11.90;99.90;;;;;;4970661;28;20382;-77
2022/11/08 08:36:36;;;;;;;10.07;2.40;;;11.80;99.90;;;;;;4970595;28;20045;-80
2022/11/08 08:39:02;;;;;;;6.95;2.20;;;11.70;99.90;;;;;;4999118;28;20041;-81
2022/11/08 08:41:28;;;;;;;9.50;2.20;;;11.80;99.90;;;;;;4984419;28;20451;-80
2022/11/08 08:43:54;;;;;;;6.65;2.30;;;11.80;99.90;;;;;;4992899;28;20081;-79
2022/11/08 08:46:20;;;;;;;4.80;1.95;;;11.80;99.90;;;;;;4989467;28;20076;-83
2022/11/08 08:48:45;;;;;;;11.70;2.10;;;11.90;99.90;;;;;;4974959;28;20046;-80
2022/11/08 08:51:11;;;;;;;5.82;2.20;;;11.90;99.90;;;;;;4984637;28;20430;-80
2022/11/08 08:53:37;;;;;;;4.18;2.08;;;11.90;99.90;;;;;;4988836;28;20064;-81
2022/11/08 08:56:06;;;;;;;7.97;2.33;;;12.10;99.90;;;;;;4975170;28;20117;-78
2022/11/08 08:58:32;;;;;;;6.90;2.22;;;12.00;99.90;;;;;;4995308;28;20042;-79
2022/11/08 09:01:07;;;;;;;7.65;2.22;;;12.10;99.90;;;;;;4993576;28;20449;-80
2022/11/08 09:03:34;;;;;;;6.22;2.05;;;12.10;99.90;;;;;;4994839;28;20477;-79
2022/11/08 09:06:00;;;;;;;6.85;2.17;;;12.20;99.90;;;;;;4992242;28;20081;-82
2022/11/08 09:08:28;;;;;;;7.05;2.25;;;12.30;99.90;;;;;;4987240;28;20396;-78
2022/11/08 09:10:59;;;;;;;6.10;2.00;;;12.20;99.90;;;;;;4975711;28;20054;-77
2022/11/08 09:13:26;;;;;;;5.35;2.15;;;12.30;99.90;;;;;;5001149;28;20038;-78
2022/11/08 09:15:52;;;;;;;8.20;2.28;;;12.40;99.90;;;;;;5000658;28;20072;-78
2022/11/08 09:18:18;;;;;;;7.13;2.00;;;12.40;99.90;;;;;;4971448;28;20057;-80
2022/11/08 09:20:43;;;;;;;6.18;2.10;;;12.50;99.90;;;;;;5009536;28;20440;-77
2022/11/08 09:23:15;;;;;;;5.57;2.13;;;12.60;99.90;;;;;;4993998;28;20152;-78
2022/11/08 09:25:41;;;;;;;6.15;2.22;;;12.60;99.90;;;;;;4994240;28;20473;-81
2022/11/08 09:28:06;;;;;;;6.93;1.95;;;12.70;99.90;;;;;;4975508;28;20052;-77
2022/11/08 09:30:32;;;;;;;9.88;2.00;;;12.70;99.90;;;;;;4992273;28;20030;-77
2022/11/08 09:32:58;;;;;;;9.57;2.28;;;12.80;99.90;;;;;;4993931;28;20136;-81
2022/11/08 09:35:23;;;;;;;4.35;2.30;;;12.70;99.90;;;;;;4992791;28;20058;-80
2022/11/08 09:37:52;;;;;;;7.45;2.38;;;12.80;99.90;;;;;;4993042;28;20054;-80
2022/11/08 09:40:30;;;;;;;4.93;2.00;;;12.90;99.90;;;;;;4968847;28;20054;-78
2022/11/08 09:43:14;;;;;;;6.72;2.10;;;12.90;99.90;;;;;;4981005;28;20116;-77
2022/11/08 09:45:48;;;;;;;7.97;2.20;;;12.90;99.90;;;;;;4991879;28;20038;-78
2022/11/08 09:48:35;;;;;;;5.70;1.88;;;13.00;99.90;;;;;;4977404;28;20038;-80
2022/11/08 09:51:15;;;;;;;6.85;2.10;;;13.10;99.90;;;;;;4989660;28;20134;-80
2022/11/08 09:53:58;;;;;;;5.65;2.00;;;13.10;99.90;;;;;;4976728;28;20450;-80
2022/11/08 09:56:29;;;;;;;8.07;2.05;;;13.20;99.90;;;;;;4992446;28;20508;-81
2022/11/08 09:59:27;;;;;;;8.15;2.08;;;13.20;99.90;;;;;;4992763;28;20056;-81
2022/11/08 10:01:53;;;;;;;5.22;2.03;;;13.40;99.90;;;;;;4993832;28;20100;-83
2022/11/08 10:04:22;;;;;;;6.10;2.30;;;13.40;99.90;;;;;;4988781;28;20073;-80
2022/11/08 10:07:19;;;;;;;4.05;1.92;;;13.50;99.90;;;;;;4992634;28;20081;-80
2022/11/08 10:09:53;;;;;;;6.78;2.10;;;13.50;99.90;;;;;;4935801;29;20051;-81
2022/11/08 10:12:37;;;;;;;4.03;1.95;;;13.50;99.90;;;;;;4934799;29;20109;-79
2022/11/08 10:15:27;;;;;;;9.23;2.10;;;13.50;99.90;;;;;;4951608;29;20047;-81
2022/11/08 10:18:03;;;;;;;5.95;1.80;;;13.50;99.90;;;;;;4948592;28;20035;-80
2022/11/08 10:20:48;;;;;;;7.50;2.13;;;13.50;99.90;;;;;;4934101;29;20494;-81
2022/11/08 10:23:32;;;;;;;6.18;1.90;;;13.50;99.90;;;;;;4919119;29;20078;-80
2022/11/08 10:26:02;;;;;;;6.47;1.95;;;13.50;99.90;;;;;;4934402;29;20063;-83
2022/11/08 10:29:31;;;;;;;4.72;1.90;;;13.50;99.90;;;;;;4913761;29;20083;-78
2022/11/08 10:32:04;;;;;;;5.82;1.90;;;13.50;99.90;;;;;;4916743;29;20051;-80
2022/11/08 10:34:38;;;;;;;4.88;2.03;;;13.60;99.90;;;;;;4912079;29;20048;-79
2022/11/08 10:37:08;;;;;;;6.43;1.92;;;13.60;99.90;;;;;;4935442;29;20066;-79
2022/11/08 10:40:01;;;;;;;7.40;2.20;;;13.60;99.90;;;;;;4915008;29;20134;-84
2022/11/08 10:42:50;;;;;;;2.38;1.70;;;13.70;99.90;;;;;;4932244;29;20113;-80
2022/11/08 10:45:16;;;;;;;6.65;2.00;;;13.60;99.90;;;;;;4935160;29;20459;-82
2022/11/08 10:47:45;;;;;;;8.18;1.95;;;13.60;99.90;;;;;;4972469;28;20116;-81
2022/11/08 10:50:18;;;;;;;5.78;2.00;;;13.50;99.90;;;;;;4991194;28;20404;-79
2022/11/08 10:53:02;;;;;;;5.28;2.03;;;13.50;99.90;;;;;;4967511;28;20061;-77
2022/11/08 10:55:37;;;;;;;3.10;1.63;;;13.40;99.90;;;;;;4977378;28;20054;-80
2022/11/08 10:58:17;;;;;;;6.45;1.90;;;13.40;99.90;;;;;;4993926;28;20076;-79
2022/11/08 11:00:42;;;;;;;4.60;1.83;;;13.30;99.90;;;;;;4987183;28;20116;-81
2022/11/08 11:03:11;;;;;;;4.13;1.77;;;13.40;99.90;;;;;;4976206;28;20050;-78
2022/11/08 11:05:41;;;;;;;8.80;2.10;;;13.40;99.90;;;;;;4986239;28;20133;-77
2022/11/08 11:08:06;;;;;;;12.50;2.05;;;13.40;99.90;;;;;;4974219;28;20438;-78
2022/11/08 11:10:33;;;;;;;9.13;2.10;;;13.50;99.90;;;;;;4970908;28;20155;-79
2022/11/08 11:13:00;;;;;;;4.50;2.05;;;13.60;99.90;;;;;;4983039;28;20436;-81
2022/11/08 11:15:34;;;;;;;6.10;2.05;;;13.70;99.90;;;;;;4980673;28;20388;-79
2022/11/08 11:18:00;;;;;;;6.65;1.90;;;13.80;99.90;;;;;;4982605;28;20535;-82
2022/11/08 11:20:30;;;;;;;6.25;1.90;;;13.80;99.90;;;;;;5003863;28;20041;-78
2022/11/08 11:23:00;;;;;;;6.28;1.98;;;13.90;99.90;;;;;;4973311;28;20060;-81
2022/11/08 11:25:28;;;;;;;5.05;2.00;;;13.90;99.90;;;;;;4977330;28;20072;-83
2022/11/08 11:28:19;;;;;;;6.70;1.83;;;13.90;99.90;;;;;;4993658;28;20082;-80
2022/11/08 11:30:59;;;;;;;8.52;2.28;;;14.00;99.90;;;;;;4973405;28;20083;-81
2022/11/08 11:33:28;;;;;;;5.28;1.70;;;14.00;99.90;;;;;;4989857;28;20038;-80
2022/11/08 11:36:14;;;;;;;4.30;1.65;;;14.10;99.90;;;;;;4974454;28;20054;-80
2022/11/08 11:39:05;;;;;;;4.30;1.75;;;14.20;99.90;;;;;;4991323;28;20077;-79
2022/11/08 11:42:23;;;;;;;3.78;2.00;;;14.30;99.90;;;;;;4988801;28;20038;-80
2022/11/08 11:45:14;;;;;;;6.82;1.98;;;14.50;99.90;;;;;;4934018;28;20049;-81
2022/11/08 11:47:52;;;;;;;6.93;1.77;;;14.30;99.90;;;;;;4940842;28;20134;-82
2022/11/08 11:50:39;;;;;;;7.22;1.70;;;14.40;99.90;;;;;;4938238;28;20040;-82
2022/11/08 11:53:17;;;;;;;9.27;1.70;;;14.40;99.90;;;;;;4954214;28;20070;-83
2022/11/08 11:56:04;;;;;;;3.45;1.90;;;14.40;99.90;;;;;;4954727;28;20045;-80
2022/11/08 11:58:45;;;;;;;4.70;1.77;;;14.40;99.90;;;;;;4955427;28;20070;-80
2022/11/08 12:01:35;;;;;;;5.35;1.50;;;14.50;99.90;;;;;;4949374;28;20081;-82
2022/11/08 12:04:34;;;;;;;5.75;1.80;;;14.50;99.90;;;;;;4932120;28;20173;-80
2022/11/08 12:07:26;;;;;;;7.97;2.10;;;14.50;99.90;;;;;;4948841;28;20046;-79
2022/11/08 12:10:34;;;;;;;5.78;1.77;;;14.60;99.90;;;;;;4934891;28;20582;-79
2022/11/08 12:13:12;;;;;;;5.60;1.60;;;14.60;99.90;;;;;;4955119;28;20051;-82
2022/11/08 12:15:47;;;;;;;7.65;2.10;;;14.50;99.90;;;;;;4928997;28;20043;-81
2022/11/08 12:18:40;;;;;;;2.50;1.50;;;14.70;99.90;;;;;;4932604;28;20066;-80
2022/11/08 12:21:13;;;;;;;5.15;1.60;;;14.70;99.90;;;;;;4965756;28;20485;-80
2022/11/08 12:23:53;;;;;;;5.43;2.03;;;14.60;99.90;;;;;;4981050;28;20104;-80
2022/11/08 12:26:28;;;;;;;5.18;1.52;;;14.60;99.90;;;;;;4981717;28;20054;-83
2022/11/08 12:29:05;;;;;;;;;;;14.60;99.90;;;;;;4989010;28;20057;-79
2022/11/08 12:31:52;;;;;;;3.97;1.65;;;14.50;99.90;;;;;;4986562;28;20008;-82
2022/11/08 12:34:33;;;;;;;11.60;1.83;;;14.50;99.90;;;;;;4980940;28;20042;-85
2022/11/08 12:37:06;;;;;;;3.40;1.67;;;14.50;99.90;;;;;;4973490;28;20049;-83
2022/11/08 12:39:44;;;;;;;7.05;1.98;;;14.50;99.90;;;;;;4988925;28;20058;-80
2022/11/08 12:42:36;;;;;;;3.78;1.70;;;14.50;99.90;;;;;;4977057;28;20042;-81
2022/11/08 12:45:22;;;;;;;6.63;1.95;;;14.40;99.90;;;;;;4988922;28;20111;-80
2022/11/08 12:48:16;;;;;;;5.05;1.92;;;14.40;99.90;;;;;;4996379;28;20049;-78
2022/11/08 12:51:06;;;;;;;7.65;1.70;;;14.40;99.90;;;;;;4997929;28;20135;-80
2022/11/08 12:53:41;;;;;;;6.35;1.90;;;14.50;99.90;;;;;;4990325;28;20057;-79
2022/11/08 12:56:23;;;;;;;4.75;1.60;;;14.40;99.90;;;;;;4969491;28;20519;-81
2022/11/08 12:58:51;;;;;;;5.07;1.85;;;14.40;99.90;;;;;;4980750;28;20485;-79
2022/11/08 13:01:19;;;;;;;2.85;1.60;;;14.50;99.90;;;;;;4982780;28;20037;-77
2022/11/08 13:03:51;;;;;;;5.32;1.55;;;14.50;99.90;;;;;;4982367;28;20085;-80
2022/11/08 13:06:28;;;;;;;7.53;1.85;;;14.50;99.90;;;;;;4971430;28;20046;-80
2022/11/08 13:09:05;;;;;;;4.90;1.83;;;14.60;99.90;;;;;;4971941;28;20873;-82
2022/11/08 13:11:46;;;;;;;8.60;1.88;;;14.60;99.90;;;;;;5001685;28;20414;-77
2022/11/08 13:14:15;;;;;;;4.97;1.90;;;14.70;99.90;;;;;;4980164;28;20042;-83
2022/11/08 13:16:43;;;;;;;7.53;1.60;;;14.80;99.90;;;;;;4987128;28;20045;-80
2022/11/08 13:19:45;;;;;;;8.15;1.60;;;14.90;99.90;;;;;;4976802;28;20508;-80